Time;durP1;ratioP1;P1;durP2;ratioP2;P2;SDS_P1;SDS_P2;PMS_P1;PMS_P2;Temp;Humidity;BMP_temperature;BMP_pressure;BME280_temperature;BME280_humidity;BME280_pressure;Samples;Min_cycle;Max_cycle;Signal;HPM_P1;HPM_P2
2021/12/10 00:01:22;;;;;;;26.42;18.00;;;103.10;2227.20;;;;;;5051818;28;20111;-72
2021/12/10 00:03:51;;;;;;;23.30;16.63;;;103.10;2227.20;;;;;;5047170;28;20024;-71
2021/12/10 00:06:28;;;;;;;26.48;17.55;;;103.10;2227.20;;;;;;5038458;28;20029;-72
2021/12/10 00:09:04;;;;;;;27.50;18.02;;;103.00;2227.20;;;;;;5026382;28;20503;-72
2021/12/10 00:11:55;;;;;;;23.95;16.05;;;103.00;2227.20;;;;;;5060568;28;20036;-71
2021/12/10 00:14:26;;;;;;;25.45;16.85;;;103.00;2227.20;;;;;;5067378;28;20025;-71
2021/12/10 00:16:52;;;;;;;26.65;17.35;;;103.00;2227.20;;;;;;5057444;28;20017;-71
2021/12/10 00:21:51;;;;;;;27.88;18.23;;;103.00;2227.20;;;;;;5062840;28;20622;-71
2021/12/10 00:24:18;;;;;;;25.02;17.88;;;103.00;2227.20;;;;;;5054025;28;20098;-72
2021/12/10 00:26:45;;;;;;;22.50;16.20;;;103.00;2227.20;;;;;;5064767;28;20086;-71
2021/12/10 00:29:12;;;;;;;25.95;17.60;;;103.00;2227.20;;;;;;5072110;28;20027;-71
2021/12/10 00:31:48;;;;;;;27.50;18.80;;;102.90;2227.20;;;;;;5058764;28;20025;-72
2021/12/10 00:34:26;;;;;;;26.30;16.83;;;102.90;2227.20;;;;;;5056893;28;20025;-71
2021/12/10 00:36:54;;;;;;;21.30;15.00;;;102.90;2227.20;;;;;;5065589;28;20526;-72
2021/12/10 00:39:25;;;;;;;22.95;16.25;;;102.90;2227.20;;;;;;5051290;28;20464;-72
2021/12/10 00:41:53;;;;;;;25.77;17.00;;;102.90;2227.20;;;;;;5068545;28;20135;-72
2021/12/10 00:44:19;;;;;;;25.33;15.65;;;102.90;2227.20;;;;;;5056533;28;20030;-71
2021/12/10 00:46:45;;;;;;;26.48;18.30;;;102.80;2227.20;;;;;;5075842;28;20372;-71
2021/12/10 00:49:11;;;;;;;27.00;15.68;;;102.80;2227.20;;;;;;5056544;28;20066;-71
2021/12/10 00:51:38;;;;;;;24.92;16.85;;;102.80;2227.20;;;;;;5044646;28;20036;-72
2021/12/10 00:54:05;;;;;;;28.13;19.35;;;102.90;2227.20;;;;;;5050328;28;20031;-71
2021/12/10 00:56:32;;;;;;;24.33;16.23;;;103.00;2227.20;;;;;;5090789;28;20091;-71
2021/12/10 00:58:58;;;;;;;25.63;16.63;;;102.90;2227.20;;;;;;5075452;28;20025;-72
2021/12/10 01:01:27;;;;;;;24.40;15.85;;;102.90;2227.20;;;;;;5075354;28;20031;-72
2021/12/10 01:04:13;;;;;;;27.60;17.30;;;102.90;2227.20;;;;;;5090907;28;20032;-71
2021/12/10 01:06:42;;;;;;;22.60;16.90;;;102.90;2227.20;;;;;;5075379;28;20494;-71
2021/12/10 01:09:15;;;;;;;28.85;17.92;;;102.90;2227.20;;;;;;5080225;28;20598;-71
2021/12/10 01:11:55;;;;;;;23.77;17.05;;;103.10;2227.20;;;;;;5053668;28;20112;-72
2021/12/10 01:14:54;;;;;;;21.23;15.77;;;102.90;2227.20;;;;;;5051599;28;20017;-71
2021/12/10 01:25:53;;;;;;;22.88;15.07;;;102.80;2227.20;;;;;;5037166;28;20028;-72
2021/12/10 01:28:18;;;;;;;24.92;16.60;;;102.80;2227.20;;;;;;5051226;28;20144;-72
2021/12/10 01:30:44;;;;;;;25.48;16.70;;;102.80;2227.20;;;;;;5055032;28;20458;-71
2021/12/10 01:33:13;;;;;;;24.85;15.95;;;102.80;2227.20;;;;;;5069978;28;20112;-71
2021/12/10 01:35:44;;;;;;;21.02;15.48;;;102.80;2227.20;;;;;;5054855;28;20452;-71
2021/12/10 01:38:12;;;;;;;25.08;16.60;;;102.90;2227.20;;;;;;5045270;28;20029;-72
2021/12/10 01:40:41;;;;;;;25.50;16.63;;;102.90;2227.20;;;;;;5048021;28;20079;-72
2021/12/10 01:43:11;;;;;;;23.52;15.63;;;102.90;2227.20;;;;;;5034731;28;20087;-71
2021/12/10 01:45:46;;;;;;;22.48;14.98;;;102.90;2227.20;;;;;;5034628;28;20048;-71
2021/12/10 01:48:21;;;;;;;24.02;15.88;;;102.90;2227.20;;;;;;5045920;28;20048;-71
2021/12/10 01:50:48;;;;;;;23.33;15.95;;;102.90;2227.20;;;;;;5047142;28;20028;-71
2021/12/10 01:53:17;;;;;;;28.23;16.40;;;102.90;2227.20;;;;;;5042168;28;20076;-71
2021/12/10 01:55:46;;;;;;;22.58;14.63;;;102.90;2227.20;;;;;;5045813;28;20021;-72
2021/12/10 01:58:17;;;;;;;24.80;16.48;;;102.90;2227.20;;;;;;5035456;28;20583;-72
2021/12/10 02:00:46;;;;;;;22.50;15.35;;;102.90;2227.20;;;;;;5046822;28;20029;-71
2021/12/10 02:03:13;;;;;;;23.70;15.48;;;102.90;2227.20;;;;;;5047399;28;20079;-72
2021/12/10 02:05:38;;;;;;;21.60;14.45;;;102.90;2227.20;;;;;;5048203;28;20420;-71
2021/12/10 02:08:05;;;;;;;21.65;14.38;;;102.90;2227.20;;;;;;5039234;28;20040;-71
2021/12/10 02:10:31;;;;;;;23.38;16.05;;;103.00;2227.20;;;;;;5052228;28;20048;-71
2021/12/10 02:12:58;;;;;;;26.13;16.88;;;102.90;2227.20;;;;;;5049542;28;20084;-72
2021/12/10 02:15:28;;;;;;;26.13;16.40;;;103.00;2227.20;;;;;;5049245;28;20528;-70
2021/12/10 02:17:57;;;;;;;23.45;16.48;;;103.00;2227.20;;;;;;5056503;28;20029;-72
2021/12/10 02:20:32;;;;;;;25.63;16.50;;;103.00;2227.20;;;;;;5051111;28;20025;-71
2021/12/10 02:23:00;;;;;;;23.03;15.50;;;102.90;2227.20;;;;;;5041047;28;20079;-71
2021/12/10 02:25:30;;;;;;;22.45;15.30;;;103.00;2227.20;;;;;;5034106;28;20679;-72
2021/12/10 02:27:57;;;;;;;24.38;16.48;;;102.90;2227.20;;;;;;5033660;28;20507;-72
2021/12/10 02:30:26;;;;;;;25.90;15.98;;;103.00;2227.20;;;;;;5050345;28;20036;-73
2021/12/10 02:32:52;;;;;;;21.92;15.00;;;102.90;2227.20;;;;;;5053576;28;20021;-73
2021/12/10 02:35:18;;;;;;;23.50;15.15;;;102.80;2227.20;;;;;;5051805;28;20090;-73
2021/12/10 02:37:47;;;;;;;24.13;16.48;;;102.80;2227.20;;;;;;5053415;28;20025;-73
2021/12/10 02:40:17;;;;;;;27.63;18.25;;;102.80;2227.20;;;;;;5052140;28;20037;-72
2021/12/10 02:42:43;;;;;;;27.92;17.70;;;102.90;2227.20;;;;;;5050407;28;20032;-72
2021/12/10 02:45:15;;;;;;;25.95;16.77;;;102.90;2227.20;;;;;;5051725;28;20119;-73
2021/12/10 02:47:42;;;;;;;20.58;15.25;;;102.90;2227.20;;;;;;5051868;28;20021;-73
2021/12/10 02:50:10;;;;;;;23.88;16.35;;;102.90;2227.20;;;;;;5051420;28;20114;-73
2021/12/10 02:52:36;;;;;;;27.98;16.75;;;102.90;2227.20;;;;;;5053418;28;20384;-73
2021/12/10 02:55:04;;;;;;;30.20;17.90;;;102.80;2227.20;;;;;;5052754;28;20074;-73
2021/12/10 02:57:30;;;;;;;28.67;17.65;;;102.80;2227.20;;;;;;5053125;28;20021;-73
2021/12/10 02:59:56;;;;;;;29.55;17.55;;;102.70;2227.20;;;;;;5052879;28;20015;-73
2021/12/10 03:02:24;;;;;;;27.02;17.10;;;102.70;2227.20;;;;;;5052584;28;20025;-73
2021/12/10 03:04:51;;;;;;;27.05;18.67;;;102.70;2227.20;;;;;;5048647;28;20014;-74
2021/12/10 03:07:19;;;;;;;23.83;17.83;;;102.70;2227.20;;;;;;5050539;28;20102;-73
2021/12/10 03:09:49;;;;;;;27.08;18.48;;;102.60;2227.20;;;;;;5052666;28;20500;-73
2021/12/10 03:12:18;;;;;;;30.02;18.55;;;102.60;2227.20;;;;;;5034099;28;20033;-72
2021/12/10 03:14:48;;;;;;;27.40;19.42;;;102.50;2227.20;;;;;;5045970;28;20020;-73
2021/12/10 03:17:20;;;;;;;30.02;20.10;;;102.50;2227.20;;;;;;5048961;28;20078;-72
2021/12/10 03:19:47;;;;;;;30.13;20.08;;;102.50;2227.20;;;;;;5049350;28;20016;-72
2021/12/10 03:22:13;;;;;;;32.17;18.85;;;102.50;2227.20;;;;;;5034914;28;20025;-73
2021/12/10 03:24:38;;;;;;;33.15;21.77;;;102.50;2227.20;;;;;;5052256;28;20041;-74
2021/12/10 03:27:07;;;;;;;29.67;19.30;;;102.50;2227.20;;;;;;5051015;28;20028;-73
2021/12/10 03:29:36;;;;;;;35.30;21.30;;;102.50;2227.20;;;;;;5034087;28;20036;-73
2021/12/10 03:32:06;;;;;;;31.05;21.13;;;102.50;2227.20;;;;;;5050833;28;20108;-73
2021/12/10 03:34:33;;;;;;;37.10;22.60;;;102.50;2227.20;;;;;;5033484;28;20139;-73
2021/12/10 03:37:00;;;;;;;34.38;22.80;;;102.60;2227.20;;;;;;5052163;28;20021;-73
2021/12/10 03:39:26;;;;;;;32.40;20.20;;;102.60;2227.20;;;;;;5047327;28;20025;-72
2021/12/10 03:41:55;;;;;;;32.20;20.23;;;102.60;2227.20;;;;;;5037220;28;20072;-72
2021/12/10 03:44:21;;;;;;;29.67;19.48;;;102.50;2227.20;;;;;;5034771;28;20112;-73
2021/12/10 03:46:48;;;;;;;32.50;19.15;;;102.50;2227.20;;;;;;5052054;28;20029;-73
2021/12/10 03:49:14;;;;;;;35.55;20.67;;;102.60;2227.20;;;;;;5052344;28;20100;-73
2021/12/10 03:51:40;;;;;;;28.70;18.58;;;102.50;2227.20;;;;;;5052004;28;20081;-72
2021/12/10 03:54:07;;;;;;;30.42;18.98;;;102.50;2227.20;;;;;;5052391;28;20421;-73
2021/12/10 03:56:36;;;;;;;29.40;18.33;;;102.60;2227.20;;;;;;5051707;28;20028;-72
2021/12/10 03:59:06;;;;;;;27.35;16.95;;;102.60;2227.20;;;;;;5041001;28;20063;-73
2021/12/10 04:01:35;;;;;;;30.55;18.67;;;102.40;2227.20;;;;;;5032528;28;20029;-73
2021/12/10 04:04:03;;;;;;;31.42;18.65;;;102.40;2227.20;;;;;;5032093;28;20100;-72
2021/12/10 04:06:29;;;;;;;31.67;19.27;;;102.40;2227.20;;;;;;5031932;28;20038;-73
2021/12/10 04:08:57;;;;;;;31.05;19.65;;;102.40;2227.20;;;;;;5049367;28;20128;-73
2021/12/10 04:11:23;;;;;;;32.00;19.75;;;102.50;2227.20;;;;;;5051759;28;20033;-73
2021/12/10 04:13:52;;;;;;;34.63;19.60;;;102.60;2227.20;;;;;;5051689;28;20017;-73
2021/12/10 04:16:19;;;;;;;35.30;20.38;;;102.50;2227.20;;;;;;5033880;28;20068;-73
2021/12/10 04:18:47;;;;;;;32.38;19.50;;;102.40;2227.20;;;;;;5051403;28;20028;-71
2021/12/10 04:21:14;;;;;;;38.55;22.45;;;102.50;2227.20;;;;;;5051675;28;20070;-73
2021/12/10 04:23:41;;;;;;;33.83;20.02;;;102.60;2227.20;;;;;;5048625;28;20036;-73
2021/12/10 04:26:09;;;;;;;34.28;20.20;;;102.60;2227.20;;;;;;5014078;28;20034;-72
2021/12/10 04:28:35;;;;;;;36.10;23.73;;;102.60;2227.20;;;;;;5031992;28;20076;-71
2021/12/10 04:31:01;;;;;;;35.17;21.08;;;102.60;2227.20;;;;;;5038651;28;20039;-72
2021/12/10 04:33:27;;;;;;;36.20;22.58;;;102.70;2227.20;;;;;;5052018;28;20427;-73
2021/12/10 04:35:57;;;;;;;35.25;20.88;;;102.80;2227.20;;;;;;5033777;28;20021;-72
2021/12/10 04:38:25;;;;;;;39.10;21.60;;;102.80;2227.20;;;;;;5051831;28;20024;-72
2021/12/10 04:40:56;;;;;;;40.83;21.58;;;102.90;2227.20;;;;;;5033899;28;20040;-72
2021/12/10 04:43:23;;;;;;;36.88;20.60;;;102.80;2227.20;;;;;;5033106;28;20033;-72
2021/12/10 04:45:56;;;;;;;37.33;22.90;;;102.90;2227.20;;;;;;5050390;28;20368;-71
2021/12/10 04:48:22;;;;;;;36.25;21.35;;;102.80;2227.20;;;;;;5051595;28;20468;-72
2021/12/10 04:50:48;;;;;;;35.78;20.83;;;102.80;2227.20;;;;;;5051551;28;20021;-71
2021/12/10 04:53:14;;;;;;;37.03;20.27;;;102.90;2227.20;;;;;;5051239;28;20077;-71
2021/12/10 04:55:40;;;;;;;35.97;20.27;;;102.90;2227.20;;;;;;5033877;28;20066;-71
2021/12/10 04:58:07;;;;;;;38.00;21.80;;;103.00;2227.20;;;;;;5034796;28;20017;-71
2021/12/10 05:00:39;;;;;;;38.40;22.35;;;102.90;2227.20;;;;;;5046710;28;20084;-71
2021/12/10 05:03:08;;;;;;;37.58;20.90;;;102.90;2227.20;;;;;;5033802;28;20033;-72
2021/12/10 05:05:35;;;;;;;37.65;22.33;;;103.00;2227.20;;;;;;5041588;28;20021;-72
2021/12/10 05:08:03;;;;;;;40.00;22.27;;;103.00;2227.20;;;;;;5031877;28;20083;-71
2021/12/10 05:10:29;;;;;;;46.08;25.23;;;103.00;2227.20;;;;;;5047290;28;20044;-71
2021/12/10 05:12:54;;;;;;;61.05;29.35;;;102.90;2227.20;;;;;;5048787;28;20025;-71
2021/12/10 05:15:23;;;;;;;68.20;34.15;;;102.90;2227.20;;;;;;5013270;28;20104;-71
2021/12/10 05:17:51;;;;;;;49.03;27.13;;;102.90;2227.20;;;;;;5027901;28;20095;-71
2021/12/10 05:20:26;;;;;;;41.33;24.30;;;102.90;2227.20;;;;;;5029952;28;20060;-72
2021/12/10 05:22:52;;;;;;;41.33;24.75;;;102.80;2227.20;;;;;;5029421;28;20428;-72
2021/12/10 05:25:19;;;;;;;41.75;25.02;;;102.90;2227.20;;;;;;5029812;28;20021;-72
2021/12/10 05:27:46;;;;;;;40.88;24.13;;;102.80;2227.20;;;;;;5034151;28;20027;-71
2021/12/10 05:30:16;;;;;;;47.75;28.27;;;102.90;2227.20;;;;;;5031344;28;20384;-71
2021/12/10 05:32:42;;;;;;;44.60;26.23;;;102.90;2227.20;;;;;;5033232;28;20052;-71
2021/12/10 05:35:08;;;;;;;39.88;23.27;;;102.90;2227.20;;;;;;5031731;28;20498;-71
2021/12/10 05:37:34;;;;;;;41.17;24.45;;;102.90;2227.20;;;;;;5032874;28;20053;-72
2021/12/10 05:40:00;;;;;;;41.53;23.35;;;103.00;2227.20;;;;;;5031358;28;20056;-72
2021/12/10 05:42:27;;;;;;;43.08;25.70;;;103.00;2227.20;;;;;;5028339;28;20496;-71
2021/12/10 05:44:53;;;;;;;49.42;27.02;;;102.90;2227.20;;;;;;5048779;28;20029;-72
2021/12/10 05:47:19;;;;;;;46.50;24.98;;;102.90;2227.20;;;;;;5054917;28;20429;-72
2021/12/10 05:49:45;;;;;;;44.45;26.50;;;102.90;2227.20;;;;;;5054448;28;20025;-71
2021/12/10 05:52:11;;;;;;;40.33;23.85;;;102.90;2227.20;;;;;;5036583;28;20025;-72
2021/12/10 05:54:37;;;;;;;48.00;25.50;;;102.90;2227.20;;;;;;5036362;28;20029;-72
2021/12/10 05:57:04;;;;;;;46.00;27.00;;;103.00;2227.20;;;;;;5036594;28;20087;-72
2021/12/10 05:59:30;;;;;;;40.88;23.30;;;103.00;2227.20;;;;;;5036156;28;20036;-71
2021/12/10 06:01:57;;;;;;;39.45;25.42;;;102.90;2227.20;;;;;;5053781;28;20025;-72
2021/12/10 06:04:27;;;;;;;45.45;25.35;;;103.00;2227.20;;;;;;5054648;28;20048;-72
2021/12/10 06:06:54;;;;;;;44.88;25.40;;;103.00;2227.20;;;;;;5036287;28;20087;-72
2021/12/10 06:09:21;;;;;;;60.47;29.45;;;103.00;2227.20;;;;;;5054170;28;20056;-71
2021/12/10 06:11:47;;;;;;;51.67;27.67;;;103.00;2227.20;;;;;;5053803;28;20033;-71
2021/12/10 06:14:13;;;;;;;50.08;27.23;;;103.00;2227.20;;;;;;5036291;28;20017;-72
2021/12/10 06:16:39;;;;;;;48.50;27.02;;;102.90;2227.20;;;;;;5053852;28;20017;-72
2021/12/10 06:19:06;;;;;;;52.45;26.17;;;102.90;2227.20;;;;;;5053956;28;20112;-71
2021/12/10 06:21:33;;;;;;;50.95;25.52;;;102.90;2227.20;;;;;;5053318;28;20082;-71
2021/12/10 06:24:00;;;;;;;54.83;28.88;;;102.90;2227.20;;;;;;5053719;28;20017;-73
2021/12/10 06:26:26;;;;;;;51.60;27.45;;;102.90;2227.20;;;;;;5053707;28;20048;-72
2021/12/10 06:28:52;;;;;;;52.92;27.75;;;103.00;2227.20;;;;;;5053550;28;20024;-72
2021/12/10 06:31:22;;;;;;;60.53;30.05;;;102.90;2227.20;;;;;;5034334;28;20028;-72
2021/12/10 06:33:49;;;;;;;53.33;28.23;;;102.80;2227.20;;;;;;5052907;28;20086;-72
2021/12/10 06:36:17;;;;;;;51.88;27.85;;;102.80;2227.20;;;;;;5035946;28;20474;-72
2021/12/10 06:38:43;;;;;;;52.72;28.42;;;102.90;2227.20;;;;;;5053385;28;20063;-71
2021/12/10 06:41:11;;;;;;;53.90;26.45;;;102.90;2227.20;;;;;;5035323;28;20040;-72
2021/12/10 06:43:37;;;;;;;46.22;25.35;;;103.00;2227.20;;;;;;5053257;28;20028;-72
2021/12/10 06:46:05;;;;;;;47.03;27.20;;;103.00;2227.20;;;;;;5053203;28;20100;-72
2021/12/10 06:48:32;;;;;;;50.08;27.38;;;103.00;2227.20;;;;;;5035520;28;20036;-72
2021/12/10 06:51:01;;;;;;;44.17;24.92;;;103.00;2227.20;;;;;;5049577;28;20152;-72
2021/12/10 06:53:28;;;;;;;51.80;26.63;;;103.00;2227.20;;;;;;5033309;28;20504;-71
2021/12/10 06:55:55;;;;;;;47.25;26.45;;;103.00;2227.20;;;;;;5033181;28;20048;-71
2021/12/10 06:58:23;;;;;;;43.63;23.15;;;103.10;2227.20;;;;;;5033732;28;20017;-71
2021/12/10 07:00:54;;;;;;;44.70;24.42;;;103.00;2227.20;;;;;;5051815;28;20107;-72
2021/12/10 07:03:25;;;;;;;43.25;24.55;;;103.00;2227.20;;;;;;5046787;28;20021;-71
2021/12/10 07:05:53;;;;;;;41.25;23.40;;;102.90;2227.20;;;;;;5052017;28;20029;-72
2021/12/10 07:08:21;;;;;;;46.53;22.88;;;102.90;2227.20;;;;;;5046491;28;20091;-72
2021/12/10 07:10:48;;;;;;;42.25;24.45;;;103.00;2227.20;;;;;;5054958;28;20132;-72
2021/12/10 07:13:15;;;;;;;43.72;23.38;;;103.00;2227.20;;;;;;5057833;28;20047;-72
2021/12/10 07:15:45;;;;;;;46.67;25.40;;;103.10;2227.20;;;;;;5051814;28;20087;-72
2021/12/10 07:18:11;;;;;;;42.58;24.42;;;103.10;2227.20;;;;;;5056421;28;20021;-72
2021/12/10 07:20:40;;;;;;;41.90;22.52;;;103.10;2227.20;;;;;;5054371;28;20086;-72
2021/12/10 07:23:06;;;;;;;44.17;23.10;;;103.10;2227.20;;;;;;5050425;28;20086;-71
2021/12/10 07:25:32;;;;;;;40.00;23.52;;;103.20;2227.20;;;;;;5045878;28;20029;-72
2021/12/10 07:27:58;;;;;;;41.08;26.25;;;103.20;2227.20;;;;;;5052275;28;20040;-72
2021/12/10 07:30:26;;;;;;;43.33;23.45;;;103.20;2227.20;;;;;;5054128;28;20036;-72
2021/12/10 07:32:51;;;;;;;45.63;25.40;;;103.30;2227.20;;;;;;5051309;28;20506;-71
2021/12/10 07:35:18;;;;;;;44.88;26.92;;;103.30;2227.20;;;;;;5049808;28;20108;-71
2021/12/10 07:37:44;;;;;;;49.13;25.70;;;103.20;2227.20;;;;;;5037521;28;20032;-71
2021/12/10 07:40:14;;;;;;;47.88;26.98;;;103.20;2227.20;;;;;;5045743;28;20517;-72
2021/12/10 07:42:40;;;;;;;53.97;29.02;;;128.00;2252.80;;;;;;5030847;28;20040;-71
2021/12/10 07:45:07;;;;;;;46.78;25.92;;;103.30;2227.20;;;;;;5038305;28;20036;-73
2021/12/10 07:47:36;;;;;;;46.90;24.65;;;128.00;2252.80;;;;;;5051846;28;20025;-72
2021/12/10 07:50:08;;;;;;;49.35;25.77;;;128.10;2252.80;;;;;;5048548;28;20426;-72
2021/12/10 07:52:34;;;;;;;42.78;22.83;;;128.10;2252.80;;;;;;5031825;28;20123;-72
2021/12/10 07:55:05;;;;;;;47.88;24.88;;;128.10;2252.80;;;;;;5050601;28;20025;-72
2021/12/10 07:57:32;;;;;;;46.63;25.75;;;128.10;2252.80;;;;;;5051499;28;20021;-72
2021/12/10 07:59:58;;;;;;;44.80;28.33;;;128.10;2252.80;;;;;;5045632;28;20033;-73
2021/12/10 08:02:24;;;;;;;47.65;26.17;;;128.10;2252.80;;;;;;5054507;28;20025;-72
2021/12/10 08:04:50;;;;;;;49.85;26.45;;;128.10;2252.80;;;;;;5050889;28;20025;-73
2021/12/10 08:07:17;;;;;;;49.03;27.95;;;128.20;2252.80;;;;;;5031584;28;20034;-72
2021/12/10 08:09:43;;;;;;;54.53;26.95;;;128.30;2252.80;;;;;;5048674;28;20128;-72
2021/12/10 08:12:10;;;;;;;53.53;28.25;;;128.40;2252.80;;;;;;5049330;28;20032;-72
2021/12/10 08:14:37;;;;;;;43.67;24.65;;;128.40;2252.80;;;;;;5050256;28;20049;-72
2021/12/10 08:17:04;;;;;;;44.03;23.80;;;128.40;2252.80;;;;;;5050401;28;20035;-73
2021/12/10 08:19:30;;;;;;;39.05;22.73;;;128.30;2252.80;;;;;;5049251;28;20017;-72
2021/12/10 08:21:56;;;;;;;46.22;24.38;;;128.40;2252.80;;;;;;5048062;28;20033;-72
2021/12/10 08:24:22;;;;;;;40.70;22.83;;;128.20;2252.80;;;;;;5049521;28;20017;-72
2021/12/10 08:26:48;;;;;;;46.22;27.05;;;128.30;2252.80;;;;;;5032608;28;20082;-72
2021/12/10 08:29:16;;;;;;;48.22;25.92;;;128.30;2252.80;;;;;;5036528;28;20415;-72
2021/12/10 08:31:43;;;;;;;41.15;23.60;;;128.30;2252.80;;;;;;5050044;28;20021;-72
2021/12/10 08:34:09;;;;;;;39.38;25.30;;;128.30;2252.80;;;;;;5047579;28;20021;-72
2021/12/10 08:36:36;;;;;;;35.50;23.02;;;128.30;2252.80;;;;;;5047421;28;20380;-72
2021/12/10 08:39:05;;;;;;;43.70;23.27;;;128.40;2252.80;;;;;;5032155;28;20040;-72
2021/12/10 08:41:34;;;;;;;35.05;21.58;;;128.30;2252.80;;;;;;5030560;28;20756;-73
2021/12/10 08:44:01;;;;;;;41.42;25.65;;;128.20;2252.80;;;;;;5050465;28;20016;-72
2021/12/10 08:46:29;;;;;;;41.90;25.40;;;128.20;2252.80;;;;;;5048703;28;20029;-72
2021/12/10 08:48:58;;;;;;;39.08;22.50;;;128.30;2252.80;;;;;;5048270;28;20075;-71
2021/12/10 08:51:32;;;;;;;42.53;23.17;;;128.30;2252.80;;;;;;5048166;28;20029;-71
2021/12/10 08:54:00;;;;;;;36.47;21.52;;;128.30;2252.80;;;;;;5048110;28;20043;-71
2021/12/10 08:56:26;;;;;;;30.95;20.13;;;128.30;2252.80;;;;;;5049245;28;20040;-71
2021/12/10 08:58:52;;;;;;;37.53;21.35;;;128.30;2252.80;;;;;;5048470;28;20767;-70
2021/12/10 09:01:24;;;;;;;40.08;23.00;;;128.30;2252.80;;;;;;5049092;28;20038;-70
2021/12/10 09:03:53;;;;;;;38.70;24.48;;;128.30;2252.80;;;;;;5048274;28;20113;-70
2021/12/10 09:06:24;;;;;;;43.20;23.58;;;128.40;2252.80;;;;;;5034146;28;20036;-71
2021/12/10 09:08:51;;;;;;;37.75;21.92;;;128.30;2252.80;;;;;;5051703;28;20056;-71
2021/12/10 09:11:17;;;;;;;35.67;20.58;;;128.40;2252.80;;;;;;5050426;28;20031;-70
2021/12/10 09:13:45;;;;;;;38.70;21.40;;;128.40;2252.80;;;;;;5035357;28;20685;-70
2021/12/10 09:16:21;;;;;;;36.50;23.05;;;128.50;2252.80;;;;;;5048976;28;20032;-70
2021/12/10 09:18:48;;;;;;;36.50;20.58;;;128.70;2252.80;;;;;;5033183;28;20032;-70
2021/12/10 09:21:14;;;;;;;36.22;20.50;;;128.80;2252.80;;;;;;5034157;28;20020;-69
2021/12/10 09:23:41;;;;;;;34.13;19.88;;;128.80;2252.80;;;;;;5051301;28;20075;-70
2021/12/10 09:26:13;;;;;;;33.72;21.13;;;128.80;2252.80;;;;;;5050158;28;20108;-71
2021/12/10 09:28:42;;;;;;;32.15;19.27;;;128.80;2252.80;;;;;;5051848;28;20027;-71
2021/12/10 09:31:09;;;;;;;33.13;20.40;;;128.60;2252.80;;;;;;5054274;28;20456;-72
2021/12/10 09:33:35;;;;;;;34.05;22.73;;;128.60;2252.80;;;;;;5053245;28;20025;-71
2021/12/10 09:36:01;;;;;;;37.97;22.17;;;128.60;2252.80;;;;;;5053255;28;20028;-71
2021/12/10 09:38:28;;;;;;;51.30;27.83;;;128.40;2252.80;;;;;;5053688;28;20049;-72
2021/12/10 09:40:58;;;;;;;39.90;23.33;;;128.70;2252.80;;;;;;5053451;28;20472;-72
2021/12/10 09:43:24;;;;;;;37.60;23.95;;;128.60;2252.80;;;;;;5033417;28;20451;-70
2021/12/10 09:45:52;;;;;;;35.78;22.63;;;128.50;2252.80;;;;;;5034143;28;20539;-72
2021/12/10 09:48:19;;;;;;;37.28;22.88;;;128.60;2252.80;;;;;;5054154;28;20025;-72
2021/12/10 09:50:55;;;;;;;38.13;23.02;;;128.60;2252.80;;;;;;5053470;28;20035;-71
2021/12/10 09:53:22;;;;;;;41.97;24.75;;;128.50;2252.80;;;;;;5052431;28;20013;-71
2021/12/10 09:55:48;;;;;;;38.30;21.77;;;128.70;2252.80;;;;;;5052359;28;20036;-72
2021/12/10 09:58:15;;;;;;;40.00;25.17;;;128.70;2252.80;;;;;;5053321;28;20120;-72
2021/12/10 10:01:04;;;;;;;41.67;23.23;;;128.90;2252.80;;;;;;5053200;28;20891;-72
2021/12/10 10:03:34;;;;;;;40.50;22.85;;;128.90;2252.80;;;;;;5034406;28;20464;-71
2021/12/10 10:06:00;;;;;;;34.33;22.42;;;153.60;2252.80;;;;;;5051662;28;20029;-71
2021/12/10 10:08:26;;;;;;;38.58;24.70;;;153.70;2252.80;;;;;;5054288;28;20075;-72
2021/12/10 10:11:01;;;;;;;37.92;24.10;;;153.70;2252.80;;;;;;5073035;28;20056;-72
2021/12/10 10:13:31;;;;;;;44.17;24.95;;;153.80;2252.80;;;;;;5072399;28;20578;-72
2021/12/10 10:15:59;;;;;;;42.88;26.42;;;153.80;2252.80;;;;;;5053415;28;20028;-71
2021/12/10 10:18:27;;;;;;;45.63;28.08;;;153.60;2252.80;;;;;;5072543;28;20013;-71
2021/12/10 10:20:57;;;;;;;50.50;30.65;;;128.80;2252.80;;;;;;5073098;28;20032;-72
2021/12/10 10:23:26;;;;;;;49.95;30.63;;;128.90;2252.80;;;;;;5073183;28;20035;-71
2021/12/10 10:25:55;;;;;;;56.88;33.35;;;128.80;2252.80;;;;;;5071585;28;20048;-71
2021/12/10 10:28:22;;;;;;;55.05;34.75;;;153.80;2252.80;;;;;;5072427;28;20020;-71
2021/12/10 10:30:59;;;;;;;48.15;28.13;;;153.80;2252.80;;;;;;5072989;28;20024;-72
2021/12/10 10:33:26;;;;;;;47.33;28.98;;;154.10;2252.80;;;;;;5073083;28;20102;-71
2021/12/10 10:35:57;;;;;;;39.13;25.45;;;154.20;2252.80;;;;;;5073298;28;20036;-71
2021/12/10 10:38:25;;;;;;;52.85;32.15;;;154.30;2252.80;;;;;;5072942;28;20024;-71
2021/12/10 10:40:59;;;;;;;49.00;32.83;;;154.30;2252.80;;;;;;5069386;28;20391;-70
2021/12/10 10:47:32;;;;;;;56.80;36.67;;;154.50;2252.80;;;;;;5270304;22;20091;-76
2021/12/10 10:50:11;;;;;;;61.40;35.97;;;154.40;2252.80;;;;;;5055231;28;20045;-76
2021/12/10 10:52:38;;;;;;;56.83;34.58;;;154.50;2252.80;;;;;;5046296;28;20103;-74
2021/12/10 10:55:15;;;;;;;51.13;32.92;;;154.40;2252.80;;;;;;5065164;28;20029;-74
2021/12/10 10:57:55;;;;;;;50.72;32.05;;;154.40;2252.80;;;;;;5064562;28;20029;-74
2021/12/10 11:00:34;;;;;;;53.30;33.83;;;154.20;2252.80;;;;;;5063078;28;20414;-76
2021/12/10 11:03:07;;;;;;;45.70;28.63;;;154.20;2252.80;;;;;;5061116;28;20016;-75
2021/12/10 11:05:33;;;;;;;45.55;28.40;;;154.30;2252.80;;;;;;5053747;28;20135;-76
2021/12/10 11:08:02;;;;;;;50.38;28.92;;;154.30;2252.80;;;;;;5049953;28;20083;-74
2021/12/10 11:10:36;;;;;;;43.25;24.77;;;154.30;2252.80;;;;;;5060577;28;20032;-76
2021/12/10 11:13:13;;;;;;;44.13;26.20;;;154.30;2252.80;;;;;;5047338;28;20501;-77
2021/12/10 11:15:53;;;;;;;54.15;33.00;;;154.30;2252.80;;;;;;5065664;28;20056;-74
2021/12/10 11:18:19;;;;;;;46.03;27.95;;;154.30;2252.80;;;;;;5044146;28;20449;-74
2021/12/10 11:20:45;;;;;;;47.28;30.77;;;154.20;2252.80;;;;;;5067760;28;20040;-75
2021/12/10 11:23:12;;;;;;;55.95;33.42;;;154.10;2252.80;;;;;;5063195;28;20036;-74
2021/12/10 11:25:40;;;;;;;51.20;29.63;;;154.10;2252.80;;;;;;5045904;28;20064;-74
2021/12/10 11:28:13;;;;;;;47.80;29.73;;;154.20;2252.80;;;;;;5048921;28;20119;-75
2021/12/10 11:30:43;;;;;;;46.00;29.17;;;154.30;2252.80;;;;;;5049715;28;20038;-74
2021/12/10 11:33:15;;;;;;;45.03;27.63;;;154.40;2252.80;;;;;;5062875;28;20143;-74
2021/12/10 11:35:58;;;;;;;42.33;26.23;;;154.40;2252.80;;;;;;5050498;28;20041;-74
2021/12/10 11:38:31;;;;;;;51.42;28.83;;;154.40;2252.80;;;;;;5060031;28;20024;-74
2021/12/10 11:41:10;;;;;;;48.03;27.40;;;154.40;2252.80;;;;;;5060829;28;20106;-74
2021/12/10 11:43:52;;;;;;;52.65;29.83;;;154.30;2252.80;;;;;;5047476;28;20036;-74
2021/12/10 11:49:21;;;;;;;55.03;33.58;;;154.30;2252.80;;;;;;5060178;28;20351;-73
2021/12/10 11:51:54;;;;;;;49.63;31.05;;;154.30;2252.80;;;;;;5051089;28;20032;-73
2021/12/10 11:54:28;;;;;;;48.42;27.27;;;154.20;2252.80;;;;;;5053249;28;20030;-73
2021/12/10 11:57:00;;;;;;;39.65;25.85;;;154.20;2252.80;;;;;;5058907;28;20039;-74
2021/12/10 11:59:32;;;;;;;43.83;27.45;;;154.20;2252.80;;;;;;5063616;28;20049;-73
2021/12/10 12:02:01;;;;;;;44.55;28.00;;;154.20;2252.80;;;;;;5060678;28;20096;-74
2021/12/10 12:04:40;;;;;;;44.70;29.75;;;154.20;2252.80;;;;;;5065162;28;20048;-75
2021/12/10 12:07:18;;;;;;;46.25;28.23;;;154.30;2252.80;;;;;;5061331;28;20090;-73
2021/12/10 12:09:50;;;;;;;50.90;32.65;;;154.30;2252.80;;;;;;5062917;28;20025;-74
2021/12/10 12:12:19;;;;;;;45.05;30.13;;;154.30;2252.80;;;;;;5061981;28;20126;-73
2021/12/10 12:14:52;;;;;;;52.75;29.52;;;154.20;2252.80;;;;;;5040705;28;20036;-73
2021/12/10 12:17:29;;;;;;;46.65;29.05;;;154.40;2252.80;;;;;;5045022;28;20044;-74
2021/12/10 12:19:54;;;;;;;;;;;154.50;2252.80;;;;;;5051459;28;20028;-74
2021/12/10 12:25:28;;;;;;;38.38;25.42;;;179.60;2252.80;;;;;;5060340;28;20845;-74
2021/12/10 12:28:07;;;;;;;59.17;32.80;;;179.70;2252.80;;;;;;5062479;28;20304;-74